sensor_id;sensor_type;location;lat;lon;timestamp;P1;durP1;ratioP1;P2;durP2;ratioP2
35592;SDS011;64447;52.140;5.602;2023-09-07T00:01:39;13.73;;;10.52;;
35592;SDS011;64447;52.140;5.602;2023-09-07T00:04:05;11.48;;;9.50;;
35592;SDS011;64447;52.140;5.602;2023-09-07T00:06:31;12.18;;;10.15;;
35592;SDS011;64447;52.140;5.602;2023-09-07T00:08:57;14.93;;;10.85;;
35592;SDS011;64447;52.140;5.602;2023-09-07T00:11:22;13.45;;;10.65;;
35592;SDS011;64447;52.140;5.602;2023-09-07T00:13:48;14.98;;;10.93;;
35592;SDS011;64447;52.140;5.602;2023-09-07T00:16:15;14.45;;;11.38;;
35592;SDS011;64447;52.140;5.602;2023-09-07T00:18:41;13.40;;;10.77;;
35592;SDS011;64447;52.140;5.602;2023-09-07T00:24:28;12.25;;;10.90;;
35592;SDS011;64447;52.140;5.602;2023-09-07T00:26:54;11.25;;;9.98;;
35592;SDS011;64447;52.140;5.602;2023-09-07T00:29:20;11.70;;;10.52;;
35592;SDS011;64447;52.140;5.602;2023-09-07T00:31:45;12.63;;;10.95;;
35592;SDS011;64447;52.140;5.602;2023-09-07T00:34:11;12.48;;;10.95;;
35592;SDS011;64447;52.140;5.602;2023-09-07T00:36:36;14.50;;;9.88;;
35592;SDS011;64447;52.140;5.602;2023-09-07T00:39:02;12.95;;;11.45;;
35592;SDS011;64447;52.140;5.602;2023-09-07T00:41:28;14.57;;;11.20;;
35592;SDS011;64447;52.140;5.602;2023-09-07T00:43:53;12.23;;;10.98;;
35592;SDS011;64447;52.140;5.602;2023-09-07T00:46:19;12.60;;;10.35;;
35592;SDS011;64447;52.140;5.602;2023-09-07T00:48:46;13.50;;;9.65;;
35592;SDS011;64447;52.140;5.602;2023-09-07T00:54:35;11.25;;;9.98;;
35592;SDS011;64447;52.140;5.602;2023-09-07T00:57:03;11.40;;;10.20;;
35592;SDS011;64447;52.140;5.602;2023-09-07T00:59:30;12.57;;;10.23;;
35592;SDS011;64447;52.140;5.602;2023-09-07T01:01:57;11.95;;;9.55;;
35592;SDS011;64447;52.140;5.602;2023-09-07T01:04:22;12.43;;;9.65;;
35592;SDS011;64447;52.140;5.602;2023-09-07T01:06:52;15.77;;;10.23;;
35592;SDS011;64447;52.140;5.602;2023-09-07T01:09:25;12.55;;;10.07;;
35592;SDS011;64447;52.140;5.602;2023-09-07T01:11:53;11.13;;;9.50;;
35592;SDS011;64447;52.140;5.602;2023-09-07T01:14:19;11.05;;;9.00;;
35592;SDS011;64447;52.140;5.602;2023-09-07T01:16:44;10.20;;;9.05;;
35592;SDS011;64447;52.140;5.602;2023-09-07T01:19:10;11.88;;;9.60;;
35592;SDS011;64447;52.140;5.602;2023-09-07T01:21:37;11.35;;;9.60;;
35592;SDS011;64447;52.140;5.602;2023-09-07T01:24:07;13.27;;;9.10;;
35592;SDS011;64447;52.140;5.602;2023-09-07T01:26:35;9.85;;;8.85;;
35592;SDS011;64447;52.140;5.602;2023-09-07T01:29:03;10.50;;;8.75;;
35592;SDS011;64447;52.140;5.602;2023-09-07T01:31:29;10.02;;;9.02;;
35592;SDS011;64447;52.140;5.602;2023-09-07T01:33:55;9.73;;;8.80;;
35592;SDS011;64447;52.140;5.602;2023-09-07T01:39:42;9.40;;;8.50;;
35592;SDS011;64447;52.140;5.602;2023-09-07T01:42:08;11.63;;;8.75;;
35592;SDS011;64447;52.140;5.602;2023-09-07T01:44:33;10.43;;;8.80;;
35592;SDS011;64447;52.140;5.602;2023-09-07T01:47:00;10.20;;;8.73;;
35592;SDS011;64447;52.140;5.602;2023-09-07T01:49:25;9.70;;;8.70;;
35592;SDS011;64447;52.140;5.602;2023-09-07T01:51:51;11.32;;;9.98;;
35592;SDS011;64447;52.140;5.602;2023-09-07T01:54:17;11.38;;;9.30;;
35592;SDS011;64447;52.140;5.602;2023-09-07T01:56:43;9.60;;;8.70;;
35592;SDS011;64447;52.140;5.602;2023-09-07T01:59:09;12.55;;;9.05;;
35592;SDS011;64447;52.140;5.602;2023-09-07T02:01:34;9.90;;;8.85;;
35592;SDS011;64447;52.140;5.602;2023-09-07T02:04:02;12.73;;;9.63;;
35592;SDS011;64447;52.140;5.602;2023-09-07T02:09:50;9.77;;;8.77;;
35592;SDS011;64447;52.140;5.602;2023-09-07T02:12:16;10.32;;;8.55;;
35592;SDS011;64447;52.140;5.602;2023-09-07T02:14:42;9.75;;;8.75;;
35592;SDS011;64447;52.140;5.602;2023-09-07T02:17:08;11.43;;;8.93;;
35592;SDS011;64447;52.140;5.602;2023-09-07T02:19:33;10.80;;;8.88;;
35592;SDS011;64447;52.140;5.602;2023-09-07T02:22:00;11.00;;;9.25;;
35592;SDS011;64447;52.140;5.602;2023-09-07T02:24:26;12.27;;;9.45;;
35592;SDS011;64447;52.140;5.602;2023-09-07T02:26:51;10.00;;;9.00;;
35592;SDS011;64447;52.140;5.602;2023-09-07T02:29:17;10.75;;;8.93;;
35592;SDS011;64447;52.140;5.602;2023-09-07T02:31:43;9.85;;;8.95;;
35592;SDS011;64447;52.140;5.602;2023-09-07T02:34:08;9.25;;;8.35;;
35592;SDS011;64447;52.140;5.602;2023-09-07T02:39:55;9.45;;;8.45;;
35592;SDS011;64447;52.140;5.602;2023-09-07T02:42:21;10.68;;;8.55;;
35592;SDS011;64447;52.140;5.602;2023-09-07T02:44:47;10.18;;;8.75;;
35592;SDS011;64447;52.140;5.602;2023-09-07T02:47:13;9.15;;;8.18;;
35592;SDS011;64447;52.140;5.602;2023-09-07T02:49:38;9.18;;;7.60;;
35592;SDS011;64447;52.140;5.602;2023-09-07T02:52:04;9.70;;;8.75;;
35592;SDS011;64447;52.140;5.602;2023-09-07T02:54:30;10.52;;;9.52;;
35592;SDS011;64447;52.140;5.602;2023-09-07T02:56:55;9.50;;;8.60;;
35592;SDS011;64447;52.140;5.602;2023-09-07T02:59:21;9.15;;;8.25;;
35592;SDS011;64447;52.140;5.602;2023-09-07T03:01:46;10.20;;;8.65;;
35592;SDS011;64447;52.140;5.602;2023-09-07T03:04:12;9.55;;;8.65;;
35592;SDS011;64447;52.140;5.602;2023-09-07T03:10:00;9.45;;;8.45;;
35592;SDS011;64447;52.140;5.602;2023-09-07T03:12:25;10.35;;;9.10;;
35592;SDS011;64447;52.140;5.602;2023-09-07T03:14:52;12.27;;;9.20;;
35592;SDS011;64447;52.140;5.602;2023-09-07T03:17:18;9.70;;;8.30;;
35592;SDS011;64447;52.140;5.602;2023-09-07T03:19:45;9.48;;;8.50;;
35592;SDS011;64447;52.140;5.602;2023-09-07T03:22:11;9.60;;;8.60;;
35592;SDS011;64447;52.140;5.602;2023-09-07T03:24:37;9.75;;;8.85;;
35592;SDS011;64447;52.140;5.602;2023-09-07T03:27:03;9.48;;;8.57;;
35592;SDS011;64447;52.140;5.602;2023-09-07T03:29:30;10.25;;;8.98;;
35592;SDS011;64447;52.140;5.602;2023-09-07T03:31:58;10.02;;;9.02;;
35592;SDS011;64447;52.140;5.602;2023-09-07T03:34:25;10.82;;;9.73;;
35592;SDS011;64447;52.140;5.602;2023-09-07T03:40:13;10.07;;;9.07;;
35592;SDS011;64447;52.140;5.602;2023-09-07T03:42:38;10.18;;;9.05;;
35592;SDS011;64447;52.140;5.602;2023-09-07T03:45:04;9.48;;;8.15;;
35592;SDS011;64447;52.140;5.602;2023-09-07T03:47:30;10.05;;;8.98;;
35592;SDS011;64447;52.140;5.602;2023-09-07T03:49:56;11.50;;;8.77;;
35592;SDS011;64447;52.140;5.602;2023-09-07T03:52:22;9.43;;;8.48;;
35592;SDS011;64447;52.140;5.602;2023-09-07T03:54:50;10.57;;;9.48;;
35592;SDS011;64447;52.140;5.602;2023-09-07T03:57:17;10.27;;;9.07;;
35592;SDS011;64447;52.140;5.602;2023-09-07T03:59:44;10.77;;;9.55;;
35592;SDS011;64447;52.140;5.602;2023-09-07T04:02:10;9.85;;;8.85;;
35592;SDS011;64447;52.140;5.602;2023-09-07T04:04:35;10.82;;;8.60;;
35592;SDS011;64447;52.140;5.602;2023-09-07T04:07:01;10.00;;;8.20;;
35592;SDS011;64447;52.140;5.602;2023-09-07T04:09:27;10.43;;;9.35;;
35592;SDS011;64447;52.140;5.602;2023-09-07T04:11:52;9.90;;;8.90;;
35592;SDS011;64447;52.140;5.602;2023-09-07T04:14:18;11.25;;;9.00;;
35592;SDS011;64447;52.140;5.602;2023-09-07T04:16:43;10.50;;;8.90;;
35592;SDS011;64447;52.140;5.602;2023-09-07T04:19:09;10.40;;;9.30;;
35592;SDS011;64447;52.140;5.602;2023-09-07T04:24:57;14.45;;;9.60;;
35592;SDS011;64447;52.140;5.602;2023-09-07T04:27:22;10.27;;;9.25;;
35592;SDS011;64447;52.140;5.602;2023-09-07T04:29:48;9.65;;;8.63;;
35592;SDS011;64447;52.140;5.602;2023-09-07T04:32:14;10.18;;;9.15;;
35592;SDS011;64447;52.140;5.602;2023-09-07T04:34:40;11.02;;;9.32;;
35592;SDS011;64447;52.140;5.602;2023-09-07T04:40:27;9.85;;;8.52;;
35592;SDS011;64447;52.140;5.602;2023-09-07T04:42:53;12.40;;;9.55;;
35592;SDS011;64447;52.140;5.602;2023-09-07T04:45:19;11.07;;;9.15;;
35592;SDS011;64447;52.140;5.602;2023-09-07T04:47:44;9.93;;;8.63;;
35592;SDS011;64447;52.140;5.602;2023-09-07T04:50:10;10.18;;;8.90;;
35592;SDS011;64447;52.140;5.602;2023-09-07T04:52:36;11.02;;;9.70;;
35592;SDS011;64447;52.140;5.602;2023-09-07T04:55:02;10.48;;;9.45;;
35592;SDS011;64447;52.140;5.602;2023-09-07T04:57:30;10.63;;;9.27;;
35592;SDS011;64447;52.140;5.602;2023-09-07T04:59:56;12.13;;;9.20;;
35592;SDS011;64447;52.140;5.602;2023-09-07T05:02:21;9.95;;;8.63;;
35592;SDS011;64447;52.140;5.602;2023-09-07T05:04:47;9.52;;;8.63;;
35592;SDS011;64447;52.140;5.602;2023-09-07T05:10:34;10.85;;;9.00;;
35592;SDS011;64447;52.140;5.602;2023-09-07T05:13:01;11.65;;;9.15;;
35592;SDS011;64447;52.140;5.602;2023-09-07T05:15:27;15.45;;;9.35;;
35592;SDS011;64447;52.140;5.602;2023-09-07T05:17:53;11.35;;;9.25;;
35592;SDS011;64447;52.140;5.602;2023-09-07T05:20:19;12.60;;;9.93;;
35592;SDS011;64447;52.140;5.602;2023-09-07T05:22:44;13.10;;;9.60;;
35592;SDS011;64447;52.140;5.602;2023-09-07T05:25:10;12.40;;;10.02;;
35592;SDS011;64447;52.140;5.602;2023-09-07T05:27:36;11.13;;;9.30;;
35592;SDS011;64447;52.140;5.602;2023-09-07T05:30:03;14.60;;;10.48;;
35592;SDS011;64447;52.140;5.602;2023-09-07T05:32:29;14.05;;;11.20;;
35592;SDS011;64447;52.140;5.602;2023-09-07T05:34:55;14.27;;;11.65;;
35592;SDS011;64447;52.140;5.602;2023-09-07T05:37:20;12.30;;;10.70;;
35592;SDS011;64447;52.140;5.602;2023-09-07T05:39:46;13.35;;;10.90;;
35592;SDS011;64447;52.140;5.602;2023-09-07T05:42:12;13.60;;;12.20;;
35592;SDS011;64447;52.140;5.602;2023-09-07T05:44:38;12.45;;;11.20;;
35592;SDS011;64447;52.140;5.602;2023-09-07T05:47:03;12.60;;;11.30;;
35592;SDS011;64447;52.140;5.602;2023-09-07T05:49:29;13.43;;;10.80;;
35592;SDS011;64447;52.140;5.602;2023-09-07T05:55:17;12.45;;;10.50;;
35592;SDS011;64447;52.140;5.602;2023-09-07T05:57:43;12.32;;;9.98;;
35592;SDS011;64447;52.140;5.602;2023-09-07T06:00:08;11.50;;;10.00;;
35592;SDS011;64447;52.140;5.602;2023-09-07T06:02:35;11.32;;;10.23;;
35592;SDS011;64447;52.140;5.602;2023-09-07T06:05:01;11.27;;;10.02;;
35592;SDS011;64447;52.140;5.602;2023-09-07T06:11:07;12.40;;;11.10;;
35592;SDS011;64447;52.140;5.602;2023-09-07T06:13:33;14.88;;;10.60;;
35592;SDS011;64447;52.140;5.602;2023-09-07T06:15:58;11.38;;;10.18;;
35592;SDS011;64447;52.140;5.602;2023-09-07T06:18:25;12.10;;;10.13;;
35592;SDS011;64447;52.140;5.602;2023-09-07T06:20:51;13.23;;;11.18;;
35592;SDS011;64447;52.140;5.602;2023-09-07T06:23:16;15.05;;;10.27;;
35592;SDS011;64447;52.140;5.602;2023-09-07T06:25:42;12.65;;;9.60;;
35592;SDS011;64447;52.140;5.602;2023-09-07T06:28:08;11.73;;;10.35;;
35592;SDS011;64447;52.140;5.602;2023-09-07T06:30:33;11.80;;;9.75;;
35592;SDS011;64447;52.140;5.602;2023-09-07T06:32:59;12.35;;;10.23;;
35592;SDS011;64447;52.140;5.602;2023-09-07T06:35:24;12.98;;;9.48;;
35592;SDS011;64447;52.140;5.602;2023-09-07T06:37:50;13.18;;;10.48;;
35592;SDS011;64447;52.140;5.602;2023-09-07T06:40:16;12.80;;;10.70;;
35592;SDS011;64447;52.140;5.602;2023-09-07T06:42:42;13.25;;;10.75;;
35592;SDS011;64447;52.140;5.602;2023-09-07T06:45:08;13.82;;;10.13;;
35592;SDS011;64447;52.140;5.602;2023-09-07T06:47:35;15.15;;;11.07;;
35592;SDS011;64447;52.140;5.602;2023-09-07T06:50:01;11.38;;;10.18;;
35592;SDS011;64447;52.140;5.602;2023-09-07T06:55:56;16.15;;;11.07;;
35592;SDS011;64447;52.140;5.602;2023-09-07T06:58:26;14.70;;;11.93;;
35592;SDS011;64447;52.140;5.602;2023-09-07T07:00:52;15.45;;;11.45;;
35592;SDS011;64447;52.140;5.602;2023-09-07T07:03:22;13.57;;;11.63;;
35592;SDS011;64447;52.140;5.602;2023-09-07T07:05:47;12.70;;;11.40;;
35592;SDS011;64447;52.140;5.602;2023-09-07T07:08:13;13.55;;;11.95;;
35592;SDS011;64447;52.140;5.602;2023-09-07T07:10:38;14.15;;;12.68;;
35592;SDS011;64447;52.140;5.602;2023-09-07T07:13:04;15.82;;;12.98;;
35592;SDS011;64447;52.140;5.602;2023-09-07T07:15:29;15.73;;;12.82;;
35592;SDS011;64447;52.140;5.602;2023-09-07T07:17:55;13.10;;;11.77;;
35592;SDS011;64447;52.140;5.602;2023-09-07T07:20:21;16.05;;;13.00;;
35592;SDS011;64447;52.140;5.602;2023-09-07T07:22:46;17.13;;;13.82;;
35592;SDS011;64447;52.140;5.602;2023-09-07T07:25:12;17.92;;;12.95;;
35592;SDS011;64447;52.140;5.602;2023-09-07T07:27:37;14.75;;;12.18;;
35592;SDS011;64447;52.140;5.602;2023-09-07T07:30:04;16.02;;;12.88;;
35592;SDS011;64447;52.140;5.602;2023-09-07T07:32:29;14.98;;;13.05;;
35592;SDS011;64447;52.140;5.602;2023-09-07T07:34:55;14.05;;;12.30;;
35592;SDS011;64447;52.140;5.602;2023-09-07T07:40:44;14.75;;;11.85;;
35592;SDS011;64447;52.140;5.602;2023-09-07T07:43:11;16.73;;;12.60;;
35592;SDS011;64447;52.140;5.602;2023-09-07T07:45:38;17.30;;;12.77;;
35592;SDS011;64447;52.140;5.602;2023-09-07T07:48:04;13.27;;;11.52;;
35592;SDS011;64447;52.140;5.602;2023-09-07T07:50:39;12.35;;;11.05;;
35592;SDS011;64447;52.140;5.602;2023-09-07T07:53:06;12.95;;;11.07;;
35592;SDS011;64447;52.140;5.602;2023-09-07T07:55:38;13.60;;;10.75;;
35592;SDS011;64447;52.140;5.602;2023-09-07T07:58:07;12.45;;;10.93;;
35592;SDS011;64447;52.140;5.602;2023-09-07T08:00:34;11.00;;;9.90;;
35592;SDS011;64447;52.140;5.602;2023-09-07T08:03:03;11.35;;;10.00;;
35592;SDS011;64447;52.140;5.602;2023-09-07T08:05:33;13.10;;;10.25;;
35592;SDS011;64447;52.140;5.602;2023-09-07T08:08:00;11.15;;;9.15;;
35592;SDS011;64447;52.140;5.602;2023-09-07T08:10:26;14.15;;;9.48;;
35592;SDS011;64447;52.140;5.602;2023-09-07T08:12:55;10.82;;;9.13;;
35592;SDS011;64447;52.140;5.602;2023-09-07T08:15:21;9.68;;;8.65;;
35592;SDS011;64447;52.140;5.602;2023-09-07T08:17:49;10.82;;;8.57;;
35592;SDS011;64447;52.140;5.602;2023-09-07T08:20:16;9.43;;;8.13;;
35592;SDS011;64447;52.140;5.602;2023-09-07T08:26:03;10.88;;;8.45;;
35592;SDS011;64447;52.140;5.602;2023-09-07T08:28:30;8.73;;;7.80;;
35592;SDS011;64447;52.140;5.602;2023-09-07T08:33:24;8.95;;;7.55;;
35592;SDS011;64447;52.140;5.602;2023-09-07T08:35:53;9.65;;;8.35;;
35592;SDS011;64447;52.140;5.602;2023-09-07T08:38:22;10.07;;;8.38;;
35592;SDS011;64447;52.140;5.602;2023-09-07T08:40:55;12.75;;;7.75;;
35592;SDS011;64447;52.140;5.602;2023-09-07T08:43:26;11.27;;;7.20;;
35592;SDS011;64447;52.140;5.602;2023-09-07T08:46:11;9.45;;;8.02;;
35592;SDS011;64447;52.140;5.602;2023-09-07T08:48:40;8.57;;;7.68;;
35592;SDS011;64447;52.140;5.602;2023-09-07T08:51:07;10.35;;;7.05;;
35592;SDS011;64447;52.140;5.602;2023-09-07T08:53:36;7.78;;;6.68;;
35592;SDS011;64447;52.140;5.602;2023-09-07T08:56:02;7.13;;;6.25;;
35592;SDS011;64447;52.140;5.602;2023-09-07T08:58:29;9.25;;;6.20;;
35592;SDS011;64447;52.140;5.602;2023-09-07T09:00:56;7.50;;;6.07;;
35592;SDS011;64447;52.140;5.602;2023-09-07T09:03:22;7.13;;;6.43;;
35592;SDS011;64447;52.140;5.602;2023-09-07T09:05:48;6.25;;;5.65;;
35592;SDS011;64447;52.140;5.602;2023-09-07T09:08:15;6.45;;;5.85;;
35592;SDS011;64447;52.140;5.602;2023-09-07T09:10:45;5.68;;;5.05;;
35592;SDS011;64447;52.140;5.602;2023-09-07T09:13:11;6.47;;;5.78;;
35592;SDS011;64447;52.140;5.602;2023-09-07T09:15:37;8.00;;;5.47;;
35592;SDS011;64447;52.140;5.602;2023-09-07T09:18:12;7.38;;;5.90;;
35592;SDS011;64447;52.140;5.602;2023-09-07T09:20:38;8.05;;;5.72;;
35592;SDS011;64447;52.140;5.602;2023-09-07T09:26:26;7.60;;;5.35;;
35592;SDS011;64447;52.140;5.602;2023-09-07T09:28:51;5.40;;;4.90;;
35592;SDS011;64447;52.140;5.602;2023-09-07T09:31:20;7.57;;;5.47;;
35592;SDS011;64447;52.140;5.602;2023-09-07T09:33:49;5.93;;;4.65;;
35592;SDS011;64447;52.140;5.602;2023-09-07T09:36:18;4.53;;;3.92;;
35592;SDS011;64447;52.140;5.602;2023-09-07T09:38:47;4.60;;;3.88;;
35592;SDS011;64447;52.140;5.602;2023-09-07T09:41:14;4.63;;;3.80;;
35592;SDS011;64447;52.140;5.602;2023-09-07T09:43:42;4.95;;;4.07;;
35592;SDS011;64447;52.140;5.602;2023-09-07T09:46:09;5.40;;;4.25;;
35592;SDS011;64447;52.140;5.602;2023-09-07T09:48:37;5.13;;;3.90;;
35592;SDS011;64447;52.140;5.602;2023-09-07T09:51:04;5.60;;;3.60;;
35592;SDS011;64447;52.140;5.602;2023-09-07T09:53:30;5.30;;;4.03;;
35592;SDS011;64447;52.140;5.602;2023-09-07T09:55:56;5.70;;;4.32;;
35592;SDS011;64447;52.140;5.602;2023-09-07T09:58:22;6.40;;;4.18;;
35592;SDS011;64447;52.140;5.602;2023-09-07T10:00:48;4.68;;;3.97;;
35592;SDS011;64447;52.140;5.602;2023-09-07T10:03:34;6.93;;;4.28;;
35592;SDS011;64447;52.140;5.602;2023-09-07T10:06:11;5.30;;;4.10;;
35592;SDS011;64447;52.140;5.602;2023-09-07T10:08:50;4.82;;;4.10;;
35592;SDS011;64447;52.140;5.602;2023-09-07T10:11:33;7.00;;;4.40;;
35592;SDS011;64447;52.140;5.602;2023-09-07T10:14:02;4.88;;;4.20;;
35592;SDS011;64447;52.140;5.602;2023-09-07T10:16:40;5.10;;;4.20;;
35592;SDS011;64447;52.140;5.602;2023-09-07T10:19:19;5.78;;;4.40;;
35592;SDS011;64447;52.140;5.602;2023-09-07T10:21:48;4.90;;;4.30;;
35592;SDS011;64447;52.140;5.602;2023-09-07T10:24:30;6.68;;;4.32;;
35592;SDS011;64447;52.140;5.602;2023-09-07T10:27:07;6.75;;;4.15;;
35592;SDS011;64447;52.140;5.602;2023-09-07T10:29:43;5.35;;;4.43;;
35592;SDS011;64447;52.140;5.602;2023-09-07T10:32:17;5.55;;;4.20;;
35592;SDS011;64447;52.140;5.602;2023-09-07T10:34:43;4.45;;;3.97;;
35592;SDS011;64447;52.140;5.602;2023-09-07T10:37:17;4.80;;;4.35;;
35592;SDS011;64447;52.140;5.602;2023-09-07T10:39:44;6.15;;;5.00;;
35592;SDS011;64447;52.140;5.602;2023-09-07T10:42:20;5.57;;;4.00;;
35592;SDS011;64447;52.140;5.602;2023-09-07T10:44:47;6.53;;;4.65;;
35592;SDS011;64447;52.140;5.602;2023-09-07T10:47:12;5.50;;;4.55;;
35592;SDS011;64447;52.140;5.602;2023-09-07T10:49:38;5.07;;;4.57;;
35592;SDS011;64447;52.140;5.602;2023-09-07T10:52:04;5.68;;;4.28;;
35592;SDS011;64447;52.140;5.602;2023-09-07T10:54:30;4.65;;;3.88;;
35592;SDS011;64447;52.140;5.602;2023-09-07T10:56:55;8.20;;;3.92;;
35592;SDS011;64447;52.140;5.602;2023-09-07T10:59:23;4.45;;;4.00;;
35592;SDS011;64447;52.140;5.602;2023-09-07T11:01:52;6.50;;;4.47;;
35592;SDS011;64447;52.140;5.602;2023-09-07T11:04:18;4.68;;;4.28;;
35592;SDS011;64447;52.140;5.602;2023-09-07T11:06:45;6.68;;;4.30;;
35592;SDS011;64447;52.140;5.602;2023-09-07T11:09:11;6.90;;;4.55;;
35592;SDS011;64447;52.140;5.602;2023-09-07T11:11:36;5.20;;;4.15;;
35592;SDS011;64447;52.140;5.602;2023-09-07T11:14:03;4.28;;;3.88;;
35592;SDS011;64447;52.140;5.602;2023-09-07T11:16:29;4.40;;;4.00;;
35592;SDS011;64447;52.140;5.602;2023-09-07T11:18:56;6.68;;;3.97;;
35592;SDS011;64447;52.140;5.602;2023-09-07T11:21:22;4.43;;;3.85;;
35592;SDS011;64447;52.140;5.602;2023-09-07T11:23:48;4.63;;;4.07;;
35592;SDS011;64447;52.140;5.602;2023-09-07T11:26:15;5.43;;;4.03;;
35592;SDS011;64447;52.140;5.602;2023-09-07T11:28:46;5.15;;;4.40;;
35592;SDS011;64447;52.140;5.602;2023-09-07T11:31:12;4.85;;;4.18;;
35592;SDS011;64447;52.140;5.602;2023-09-07T11:33:38;4.78;;;4.13;;
35592;SDS011;64447;52.140;5.602;2023-09-07T11:36:06;6.13;;;3.97;;
35592;SDS011;64447;52.140;5.602;2023-09-07T11:41:53;5.53;;;4.45;;
35592;SDS011;64447;52.140;5.602;2023-09-07T11:44:19;5.63;;;4.28;;
35592;SDS011;64447;52.140;5.602;2023-09-07T11:46:45;8.50;;;5.00;;
35592;SDS011;64447;52.140;5.602;2023-09-07T11:49:11;5.47;;;4.60;;
35592;SDS011;64447;52.140;5.602;2023-09-07T11:51:36;8.63;;;4.40;;
35592;SDS011;64447;52.140;5.602;2023-09-07T11:54:03;5.03;;;4.05;;
35592;SDS011;64447;52.140;5.602;2023-09-07T11:56:29;7.65;;;4.80;;
35592;SDS011;64447;52.140;5.602;2023-09-07T11:58:55;5.38;;;4.47;;
35592;SDS011;64447;52.140;5.602;2023-09-07T12:01:21;5.25;;;4.53;;
35592;SDS011;64447;52.140;5.602;2023-09-07T12:03:47;8.68;;;4.60;;
35592;SDS011;64447;52.140;5.602;2023-09-07T12:06:13;6.88;;;4.40;;
